• Join FlightAware (Why Join?)
  • Login
  • US Flag 
05:15AM EDT


 

Airport Tracker/Info


-or-


 

Live Flight TrackerFlight Track Log ✈ UAL623 ✈ 15-May-2013 ✈ KIAH - KBOS

Flight Track Log - Related Links

Times and Time Zones

All times are in EDT time to prevent confusion due to time zone crossing. See the UAL623 flight status page for this flight to view local times or setup timezone preferences in your user account.

Time Position Orientation Groundspeed Altitude Reporting Facility
EDT Latitude Longitude Course Direction KTS MPH feet Rate Location/Type
06:48PM 29.9767 -95.3008 30° Northeast 158 182 600  Level Houston Center
06:49PM 30.0333 -95.2797 18° North 272 313 2,700 1,500 Climbing Houston Center
06:50PM 30.1083 -95.2708 North 264 304 3,900 1,500 Climbing Houston Center
06:51PM 30.1881 -95.2500 13° North 287 330 5,800 2,340 Climbing Houston Center
06:52PM 30.2678 -95.2219 17° North 298 343 8,800 2,640 Climbing Houston Center
06:53PM 30.6974 -94.9851 30° Northeast  Level FlightAware Approximate
06:53PM 30.3697 -95.1881 16° North 312 359 11,300  Level Houston Center
06:54PM 30.4564 -95.1244 32° Northeast 361 415 13,700 2,880 Climbing Houston Center
06:55PM 30.5339 -95.0308 46° Northeast 396 456 17,300 3,120 Climbing Houston Center
06:56PM 30.5975 -94.9258 55° Northeast 398 458 20,200 2,640 Climbing Houston Center
06:57PM 30.6772 -94.7947 55° Northeast 415 478 22,800 2,040 Climbing Houston Center
06:58PM 30.7453 -94.6756 56° Northeast 438 504 24,500 1,440 Climbing Houston Center
06:59PM 30.8167 -94.5494 57° Northeast 464 534 25,800 1,500 Climbing Houston Center
07:00PM 30.9033 -94.4311 49° Northeast 481 554 27,600 1,500 Climbing Houston Center
07:00PM 30.9658 -94.3756 37° Northeast 471 542 28,100 720 Climbing Fort Worth Center
07:01PM 31.0125 -94.3364 36° Northeast 489 563 28,400 840 Climbing Houston Center
07:02PM 31.1522 -94.2183 36° Northeast 511 588 29,500 1,080 Climbing Houston Center
07:02PM 31.2011 -94.1736 38° Northeast 515 593 30,000 1,320 Climbing Fort Worth Center
07:03PM 31.2742 -94.1142 35° Northeast 538 619 30,900 1,560 Climbing Houston Center
07:04PM 31.3925 -94.0114 37° Northeast 535 616 32,700 1,500 Climbing Houston Center
07:04PM 31.4378 -93.9706 38° Northeast 531 611 33,000 180 Climbing Fort Worth Center
07:05PM 31.5539 -93.8689 37° Northeast 526 605 33,000 300 Level Fort Worth Center
07:06PM 31.6600 -93.7842 34° Northeast 521 600 33,600 960 Climbing Fort Worth Center
07:07PM 31.7742 -93.6844 37° Northeast 510 587 35,000 1,020 Climbing Fort Worth Center
07:08PM 31.8881 -93.5844 37° Northeast 510 587 35,700 480 Climbing Fort Worth Center
07:09PM 32.0039 -93.4817 37° Northeast 510 587 36,000 120 Climbing Fort Worth Center
07:10PM 32.1175 -93.3836 36° Northeast 510 587 36,000 420 Level Fort Worth Center
07:11PM 32.2431 -93.2625 39° Northeast 522 601 36,900 480 Climbing Fort Worth Center
07:12PM 32.3525 -93.1664 37° Northeast 517 595 37,000  Climbing Fort Worth Center
07:13PM 32.4661 -93.0653 37° Northeast 511 588 37,000  Level Fort Worth Center
07:14PM 32.5836 -92.9633 36° Northeast 511 588 37,000  Level Fort Worth Center
07:15PM 32.6947 -92.8617 38° Northeast 511 588 37,000  Level Fort Worth Center
07:16PM 32.8078 -92.7594 37° Northeast 511 588 37,000  Level Fort Worth Center
07:17PM 32.9250 -92.6569 36° Northeast 511 588 37,000  Level Fort Worth Center
07:18PM 33.0403 -92.5567 36° Northeast 511 588 37,000  Level Fort Worth Center
07:19PM 33.1508 -92.4539 38° Northeast 511 588 37,000  Level Fort Worth Center
07:21PM 33.2825 -92.3353 37° Northeast 510 587 37,000  Level Memphis Center
07:22PM 33.3947 -92.2333 37° Northeast 510 587 37,000  Level Memphis Center
07:23PM 33.5089 -92.1311 37° Northeast 510 587 37,000  Level Memphis Center
07:24PM 33.6169 -92.0261 39° Northeast 505 581 37,000  Level Memphis Center
07:25PM 33.7308 -91.9233 37° Northeast 505 581 37,000  Level Memphis Center
07:26PM 33.8450 -91.8203 37° Northeast 510 587 37,000  Level Memphis Center
07:27PM 33.9567 -91.7169 37° Northeast 510 587 37,000  Level Memphis Center
07:28PM 34.0578 -91.6183 39° Northeast 498 573 37,000  Level Memphis Center
07:29PM 34.1694 -91.5144 38° Northeast 498 573 37,000  Level Memphis Center
07:30PM 34.2811 -91.4078 38° Northeast 503 579 37,000  Level Memphis Center
07:31PM 34.4050 -91.2936 37° Northeast 503 579 37,000  Level Memphis Center
07:32PM 34.5186 -91.1889 37° Northeast 503 579 37,000  Level Memphis Center
07:33PM 34.6319 -91.0814 38° Northeast 511 588 37,000  Level Memphis Center
07:34PM 34.7431 -90.9764 38° Northeast 511 588 37,000  Level Memphis Center
07:35PM 34.8542 -90.8683 39° Northeast 511 588 37,000  Level Memphis Center
07:36PM 34.9669 -90.7625 38° Northeast 511 588 37,000  Level Memphis Center
07:37PM 35.0800 -90.6514 39° Northeast 511 588 37,000  Level Memphis Center
07:38PM 35.1928 -90.5425 38° Northeast 519 597 37,000  Level Memphis Center
07:39PM 35.2931 -90.4461 38° Northeast 514 592 37,000  Level Memphis Center
07:40PM 35.4058 -90.3367 38° Northeast 514 592 37,000  Level Memphis Center
07:41PM 35.5183 -90.2269 38° Northeast 514 592 37,000  Level Memphis Center
07:42PM 35.6286 -90.1169 39° Northeast 514 592 37,000  Level Memphis Center
07:43PM 35.7431 -89.9989 40° Northeast 495 570 37,000  Level Memphis Center
07:44PM 35.8511 -89.8908 39° Northeast 495 570 37,000  Level Memphis Center
07:45PM 35.9592 -89.7850 38° Northeast 495 570 37,000  Level Memphis Center
07:46PM 36.0692 -89.6764 39° Northeast 495 570 37,000  Level Memphis Center
07:47PM 36.1769 -89.5675 39° Northeast 495 570 37,000  Level Memphis Center
07:48PM 36.2719 -89.4561 43° Northeast 489 563 37,000  Level Memphis Center
07:49PM 36.3711 -89.3183 48° Northeast 500 575 37,000  Level Memphis Center
07:50PM 36.4492 -89.1986 51° Northeast 494 568 37,000  Level Memphis Center
07:51PM 36.5375 -89.0681 50° Northeast 494 568 37,000  Level Memphis Center
07:52PM 36.6236 -88.9400 50° Northeast 483 556 37,000  Level Memphis Center
07:53PM 36.7097 -88.8117 50° Northeast 483 556 37,000  Level Memphis Center
07:54PM 36.7975 -88.6781 51° Northeast 478 550 37,000  Level Memphis Center
07:55PM 36.8811 -88.5464 52° Northeast 478 550 37,000  Level Memphis Center
07:56PM 36.9686 -88.4094 51° Northeast 484 557 37,000  Level Memphis Center
07:57PM 37.1142 -88.1811 51° Northeast 501 577 37,000  Level Indianapolis Center
07:58PM 37.2019 -88.0447 51° Northeast 498 573 37,000  Level Indianapolis Center
07:59PM 37.2894 -87.9075 51° Northeast 496 571 37,000  Level Indianapolis Center
08:00PM 37.3778 -87.7719 51° Northeast 495 570 37,000  Level Indianapolis Center
08:01PM 37.4639 -87.6358 51° Northeast 493 567 37,000  Level Indianapolis Center
08:02PM 37.5489 -87.4994 52° Northeast 490 564 37,000  Level Indianapolis Center
08:03PM 37.6472 -87.3428 52° Northeast 484 557 37,000  Level Indianapolis Center
08:05PM 37.7319 -87.2086 51° Northeast 480 552 37,000  Level Indianapolis Center
08:06PM 37.8153 -87.0733 52° Northeast 486 559 37,000  Level Indianapolis Center
08:07PM 37.8972 -86.9397 52° Northeast 484 557 37,000 180 Level Indianapolis Center
08:08PM 37.9806 -86.8061 52° Northeast 486 559 37,400 540 Climbing Indianapolis Center
08:09PM 38.0631 -86.6708 52° Northeast 487 560 38,200 780 Climbing Indianapolis Center
08:10PM 38.1464 -86.5350 52° Northeast 491 565 39,000 360 Climbing Indianapolis Center
08:11PM 38.2428 -86.3758 52° Northeast 476 548 39,000  Level Indianapolis Center
08:12PM 38.3239 -86.2439 52° Northeast 473 544 39,000  Level Indianapolis Center
08:13PM 38.4164 -86.1253 45° Northeast 471 542 39,000  Level Indianapolis Center
08:14PM 38.5142 -86.0103 43° Northeast 476 548 39,000  Level Indianapolis Center
08:15PM 38.6114 -85.8947 43° Northeast 477 549 39,000  Level Indianapolis Center
08:16PM 38.7217 -85.7750 40° Northeast 477 549 39,000  Level Indianapolis Center
08:17PM 38.8219 -85.6650 41° Northeast 476 548 39,000  Level Indianapolis Center
08:18PM 38.9219 -85.5567 40° Northeast 475 547 39,000  Level Indianapolis Center
08:19PM 39.0211 -85.4531 39° Northeast 466 536 39,000  Level Indianapolis Center
08:20PM 39.1200 -85.3486 39° Northeast 463 533 39,000  Level Indianapolis Center
08:21PM 39.2356 -85.2244 40° Northeast 457 526 39,000  Level Indianapolis Center
08:22PM 39.3144 -85.0933 52° Northeast 467 537 39,000  Level Indianapolis Center
08:23PM 39.3864 -84.9550 56° Northeast 468 539 39,000  Level Indianapolis Center
08:24PM 39.4647 -84.8056 56° Northeast 468 539 39,000 -60 Level Indianapolis Center
08:25PM 39.5378 -84.6625 56° Northeast 469 540 38,900  Descending Indianapolis Center
08:26PM 39.6103 -84.5208 56° Northeast 469 540 39,000  Climbing Indianapolis Center
08:27PM 39.6836 -84.3772 56° Northeast 470 541 38,900 -60 Descending Indianapolis Center
08:28PM 39.7569 -84.2353 56° Northeast 470 541 38,900  Level Indianapolis Center
08:29PM 39.8314 -84.0928 56° Northeast 469 540 39,000  Climbing Indianapolis Center
08:30PM 39.9050 -83.9481 56° Northeast 472 543 39,000  Level Indianapolis Center
08:31PM 39.9778 -83.8053 56° Northeast 467 537 39,000  Level Indianapolis Center
08:32PM 40.0517 -83.6597 56° Northeast 469 540 39,000 -60 Level Indianapolis Center
08:33PM 40.1258 -83.5139 56° Northeast 472 543 38,900  Descending Indianapolis Center
08:34PM 40.1989 -83.3686 57° Northeast 470 541 39,000  Climbing Indianapolis Center
08:35PM 40.2714 -83.2253 56° Northeast 468 539 38,900  Descending Indianapolis Center
08:36PM 40.3428 -83.0817 57° Northeast 466 536 39,000  Climbing Indianapolis Center
08:37PM 40.4253 -82.9133 57° Northeast 466 536 39,000 -60 Level Indianapolis Center
08:38PM 40.4961 -82.7692 57° Northeast 465 535 38,900  Descending Indianapolis Center
08:39PM 40.5672 -82.6256 57° Northeast 465 535 39,000  Climbing Indianapolis Center
08:40PM 40.6364 -82.4833 57° Northeast 470 541 39,000  Level Indianapolis Center
08:41PM 40.6586 -82.4361 58° Northeast 458 527 39,000  Level Cleveland Center
08:42PM 40.7275 -82.2928 58° Northeast 458 527 39,000  Level Cleveland Center
08:43PM 40.7986 -82.1492 57° Northeast 458 527 39,000  Level Cleveland Center
08:44PM 40.8672 -82.0025 58° Northeast 463 533 39,000  Level Cleveland Center
08:45PM 40.9442 -81.8422 58° Northeast 463 533 39,000  Level Cleveland Center
08:46PM 41.0144 -81.6975 57° Northeast 463 533 39,000  Level Cleveland Center
08:47PM 41.0825 -81.5472 59° Northeast 468 539 39,000  Level Cleveland Center
08:48PM 41.1503 -81.4158 56° Northeast 474 545 39,000  Level Cleveland Center
08:49PM 41.2222 -81.2511 60° Northeast 474 545 39,000  Level Cleveland Center
08:50PM 41.2939 -81.1028 57° Northeast 474 545 39,000  Level Cleveland Center
08:51PM 41.3633 -80.9511 59° Northeast 474 545 39,000  Level Cleveland Center
08:52PM 41.4344 -80.8047 57° Northeast 474 545 39,000  Level Cleveland Center
08:53PM 41.5033 -80.6553 58° Northeast 479 551 39,000  Level Cleveland Center
08:54PM 41.5722 -80.5025 59° Northeast 474 545 39,000  Level Cleveland Center
08:55PM 41.6428 -80.3469 59° Northeast 479 551 39,000  Level Cleveland Center
08:56PM 41.7092 -80.1936 60° Northeast 479 551 39,000  Level Cleveland Center
08:57PM 41.7564 -80.0236 70° East 474 545 39,000  Level Cleveland Center
08:58PM 41.8014 -79.8478 71° East 483 556 39,000  Level Cleveland Center
08:59PM 41.8397 -79.6747 73° East 492 566 39,000  Level Cleveland Center
09:00PM 41.8800 -79.5206 71° East 492 566 39,000  Level Cleveland Center
09:01PM 41.9219 -79.3414 72° East 492 566 39,000  Level Cleveland Center
09:02PM 41.9636 -79.1617 73° East 492 566 39,000  Level Cleveland Center
09:03PM 42.0050 -78.9819 73° East 503 579 39,000  Level Cleveland Center
09:04PM 42.0483 -78.7992 72° East 503 579 39,000  Level Cleveland Center
09:05PM 42.0892 -78.6161 73° East 503 579 39,000  Level Cleveland Center
09:06PM 42.1297 -78.4331 73° East 503 579 39,000  Level Cleveland Center
09:07PM 42.1778 -78.2350 72° East 508 585 39,000  Level Cleveland Center
09:08PM 42.2178 -78.0514 74° East 503 579 39,000  Level Cleveland Center
09:09PM 42.2594 -77.8644 73° East 503 579 39,000  Level Cleveland Center
09:10PM 42.2986 -77.6831 74° East 503 579 39,000  Level Cleveland Center
09:11PM 42.3397 -77.4958 73° East 508 585 39,000  Level Cleveland Center
09:13PM 42.4261 -77.0875 74° East 511 588 39,000  Level Boston Center
09:14PM 42.4525 -76.8981 79° East 511 588 39,000  Level Boston Center
09:15PM 42.4747 -76.7025 81° East 511 588 39,000  Level Boston Center
09:16PM 42.4878 -76.5119 85° East 516 594 39,000  Level Boston Center
09:17PM 42.4928 -76.3150 88° East 516 594 39,000  Level Boston Center
09:18PM 42.5006 -76.1381 87° East 516 594 39,000  Level Boston Center
09:19PM 42.5047 -75.9411 88° East 516 594 39,000 -60 Level Boston Center
09:20PM 42.5128 -75.7442 87° East 516 594 38,900  Descending Boston Center
09:21PM 42.5153 -75.5839 89° East 516 594 39,000  Climbing Boston Center
09:22PM 42.5194 -75.3472 89° East 521 600 39,000 -60 Level Boston Center
09:23PM 42.5244 -75.1503 88° East 521 600 38,900 -60 Descending Boston Center
09:24PM 42.5267 -74.9561 89° East 515 593 38,900  Level Boston Center
09:25PM 42.5308 -74.7617 88° East 515 593 39,000  Climbing Boston Center
09:26PM 42.5328 -74.5644 89° East 515 593 38,900  Descending Boston Center
09:27PM 42.5403 -74.3703 87° East 515 593 39,000  Climbing Boston Center
09:28PM 42.5414 -74.1758 89° East 515 593 39,000  Level Boston Center
09:29PM 42.5442 -73.9789 89° East 515 593 39,000  Level Boston Center
09:30PM 42.5467 -73.7844 89° East 515 593 39,000 -300 Level Boston Center
09:31PM 42.5467 -73.5869 90° East 515 593 38,400 -1,500 Descending Boston Center
09:32PM 42.5486 -73.3728 89° East 515 593 36,100 -2,940 Descending Boston Center
09:33PM 42.5500 -73.1814 89° East 528 608 32,600 -3,540 Descending Boston Center
09:34PM 42.5492 -72.9839 90° East 533 613 29,100 -3,300 Descending Boston Center
09:35PM 42.5500 -72.7839 90° East 533 613 26,100 -2,760 Descending Boston Center
09:36PM 42.5483 -72.5894 91° East 526 605 23,100 -2,820 Descending Boston Center
09:37PM 42.5464 -72.3556 91° East 519 597 20,000 -2,940 Descending Boston Center
09:38PM 42.5458 -72.1667 90° East 480 552 17,300 -2,520 Descending Boston Center
09:39PM 42.5392 -71.9919 93° East 474 545 15,000 -2,340 Descending Boston Center
09:40PM 42.5239 -71.8231 97° East 458 527 12,700 -2,040 Descending Boston Center
09:41PM 42.5083 -71.6628 97° East 439 505 11,000 -1,200 Descending Boston Center
09:42PM 42.5000 -71.5333 95° East 386 444 10,600 -660 Descending KA90
09:43PM 42.4833 -71.4167 101° East 345 397 9,900 -1,140 Descending KA90
09:44PM 42.4667 -71.2833 100° East 330 380 8,400 -1,380 Descending KA90
09:45PM 42.5000 -71.1667 69° East 316 364 7,100 -1,200 Descending KA90
09:46PM 42.5333 -71.0667 66° East 309 356 6,000 -900 Descending KA90
09:47PM 42.5833 -71.0167 36° Northeast 241 277 5,400 -1,320 Descending KA90
09:48PM 42.5667 -70.9333 105° East 234 269 3,300 -1,200 Descending KA90
09:49PM 42.5167 -70.9333 180° South 180 207 3,000 -360 Descending KA90